sensor_id;sensor_type;location;lat;lon;timestamp;P1;durP1;ratioP1;P2;durP2;ratioP2
78732;SDS011;68056;52.530;5.454;2023-03-01T00:00:45;5.63;;;3.42;;
78732;SDS011;68056;52.530;5.454;2023-03-01T00:03:11;5.70;;;3.85;;
78732;SDS011;68056;52.530;5.454;2023-03-01T00:05:43;4.60;;;3.15;;
78732;SDS011;68056;52.530;5.454;2023-03-01T00:08:10;6.60;;;3.88;;
78732;SDS011;68056;52.530;5.454;2023-03-01T00:10:35;6.25;;;4.15;;
78732;SDS011;68056;52.530;5.454;2023-03-01T00:13:01;4.88;;;3.78;;
78732;SDS011;68056;52.530;5.454;2023-03-01T00:15:27;8.07;;;4.60;;
78732;SDS011;68056;52.530;5.454;2023-03-01T00:17:52;5.07;;;3.13;;
78732;SDS011;68056;52.530;5.454;2023-03-01T00:20:18;4.65;;;3.80;;
78732;SDS011;68056;52.530;5.454;2023-03-01T00:22:44;6.38;;;4.38;;
78732;SDS011;68056;52.530;5.454;2023-03-01T00:25:10;4.38;;;3.20;;
78732;SDS011;68056;52.530;5.454;2023-03-01T00:27:35;6.20;;;4.10;;
78732;SDS011;68056;52.530;5.454;2023-03-01T00:30:01;7.35;;;3.90;;
78732;SDS011;68056;52.530;5.454;2023-03-01T00:32:26;6.90;;;3.65;;
78732;SDS011;68056;52.530;5.454;2023-03-01T00:34:52;4.55;;;3.08;;
78732;SDS011;68056;52.530;5.454;2023-03-01T00:37:21;7.72;;;3.75;;
78732;SDS011;68056;52.530;5.454;2023-03-01T00:39:47;6.82;;;4.43;;
78732;SDS011;68056;52.530;5.454;2023-03-01T00:42:13;7.03;;;3.78;;
78732;SDS011;68056;52.530;5.454;2023-03-01T00:44:38;5.07;;;3.38;;
78732;SDS011;68056;52.530;5.454;2023-03-01T00:47:04;6.20;;;3.72;;
78732;SDS011;68056;52.530;5.454;2023-03-01T00:49:30;4.93;;;3.72;;
78732;SDS011;68056;52.530;5.454;2023-03-01T00:51:55;4.78;;;3.35;;
78732;SDS011;68056;52.530;5.454;2023-03-01T00:54:21;5.47;;;3.78;;
78732;SDS011;68056;52.530;5.454;2023-03-01T00:56:46;5.43;;;4.28;;
78732;SDS011;68056;52.530;5.454;2023-03-01T00:59:12;5.90;;;3.95;;
78732;SDS011;68056;52.530;5.454;2023-03-01T01:01:38;7.75;;;4.68;;
78732;SDS011;68056;52.530;5.454;2023-03-01T01:04:06;8.15;;;4.43;;
78732;SDS011;68056;52.530;5.454;2023-03-01T01:06:37;6.18;;;3.72;;
78732;SDS011;68056;52.530;5.454;2023-03-01T01:09:07;6.47;;;4.22;;
78732;SDS011;68056;52.530;5.454;2023-03-01T01:11:34;6.35;;;4.15;;
78732;SDS011;68056;52.530;5.454;2023-03-01T01:14:01;6.90;;;4.47;;
78732;SDS011;68056;52.530;5.454;2023-03-01T01:16:27;6.72;;;4.10;;
78732;SDS011;68056;52.530;5.454;2023-03-01T01:18:54;5.45;;;3.75;;
78732;SDS011;68056;52.530;5.454;2023-03-01T01:21:21;6.93;;;4.55;;
78732;SDS011;68056;52.530;5.454;2023-03-01T01:23:48;6.63;;;3.80;;
78732;SDS011;68056;52.530;5.454;2023-03-01T01:26:22;4.55;;;3.55;;
78732;SDS011;68056;52.530;5.454;2023-03-01T01:28:50;5.60;;;4.05;;
78732;SDS011;68056;52.530;5.454;2023-03-01T01:31:16;6.90;;;4.38;;
78732;SDS011;68056;52.530;5.454;2023-03-01T01:33:43;6.60;;;4.35;;
78732;SDS011;68056;52.530;5.454;2023-03-01T01:36:08;5.28;;;3.70;;
78732;SDS011;68056;52.530;5.454;2023-03-01T01:38:35;4.40;;;3.58;;
78732;SDS011;68056;52.530;5.454;2023-03-01T01:41:01;5.72;;;3.55;;
78732;SDS011;68056;52.530;5.454;2023-03-01T01:43:28;4.75;;;3.45;;
78732;SDS011;68056;52.530;5.454;2023-03-01T01:46:04;6.55;;;4.07;;
78732;SDS011;68056;52.530;5.454;2023-03-01T01:48:57;8.23;;;4.85;;
78732;SDS011;68056;52.530;5.454;2023-03-01T01:51:27;7.22;;;4.70;;
78732;SDS011;68056;52.530;5.454;2023-03-01T01:54:03;7.38;;;4.28;;
78732;SDS011;68056;52.530;5.454;2023-03-01T01:56:39;9.10;;;5.28;;
78732;SDS011;68056;52.530;5.454;2023-03-01T01:59:09;7.38;;;4.82;;
78732;SDS011;68056;52.530;5.454;2023-03-01T02:01:36;8.93;;;4.97;;
78732;SDS011;68056;52.530;5.454;2023-03-01T02:04:02;6.20;;;3.97;;
78732;SDS011;68056;52.530;5.454;2023-03-01T02:06:29;6.32;;;4.13;;
78732;SDS011;68056;52.530;5.454;2023-03-01T02:09:02;5.22;;;4.07;;
78732;SDS011;68056;52.530;5.454;2023-03-01T02:11:33;8.50;;;4.88;;
78732;SDS011;68056;52.530;5.454;2023-03-01T02:13:58;6.95;;;4.40;;
78732;SDS011;68056;52.530;5.454;2023-03-01T02:16:25;9.27;;;4.65;;
78732;SDS011;68056;52.530;5.454;2023-03-01T02:18:51;8.07;;;4.88;;
78732;SDS011;68056;52.530;5.454;2023-03-01T02:21:34;8.73;;;4.90;;
78732;SDS011;68056;52.530;5.454;2023-03-01T02:24:31;6.50;;;4.07;;
78732;SDS011;68056;52.530;5.454;2023-03-01T02:27:07;5.70;;;4.15;;
78732;SDS011;68056;52.530;5.454;2023-03-01T02:29:34;6.75;;;4.53;;
78732;SDS011;68056;52.530;5.454;2023-03-01T02:32:00;5.88;;;3.50;;
78732;SDS011;68056;52.530;5.454;2023-03-01T02:34:28;7.47;;;4.40;;
78732;SDS011;68056;52.530;5.454;2023-03-01T02:36:59;7.28;;;4.47;;
78732;SDS011;68056;52.530;5.454;2023-03-01T02:39:48;5.65;;;3.50;;
78732;SDS011;68056;52.530;5.454;2023-03-01T02:42:16;6.10;;;4.15;;
78732;SDS011;68056;52.530;5.454;2023-03-01T02:44:49;9.18;;;5.07;;
78732;SDS011;68056;52.530;5.454;2023-03-01T02:47:15;6.85;;;4.57;;
78732;SDS011;68056;52.530;5.454;2023-03-01T02:49:40;6.30;;;4.32;;
78732;SDS011;68056;52.530;5.454;2023-03-01T02:57:46;8.32;;;4.82;;
78732;SDS011;68056;52.530;5.454;2023-03-01T03:00:17;8.05;;;5.20;;
78732;SDS011;68056;52.530;5.454;2023-03-01T03:02:49;4.85;;;3.50;;
78732;SDS011;68056;52.530;5.454;2023-03-01T03:05:20;6.38;;;4.40;;
78732;SDS011;68056;52.530;5.454;2023-03-01T03:07:48;5.18;;;3.42;;
78732;SDS011;68056;52.530;5.454;2023-03-01T03:10:15;7.03;;;4.68;;
78732;SDS011;68056;52.530;5.454;2023-03-01T03:12:49;8.10;;;4.68;;
78732;SDS011;68056;52.530;5.454;2023-03-01T03:15:16;5.80;;;4.22;;
78732;SDS011;68056;52.530;5.454;2023-03-01T03:17:42;7.57;;;4.65;;
78732;SDS011;68056;52.530;5.454;2023-03-01T03:20:08;8.95;;;5.70;;
78732;SDS011;68056;52.530;5.454;2023-03-01T03:22:36;7.35;;;4.57;;
78732;SDS011;68056;52.530;5.454;2023-03-01T03:25:06;4.55;;;3.65;;
78732;SDS011;68056;52.530;5.454;2023-03-01T03:27:39;5.65;;;4.03;;
78732;SDS011;68056;52.530;5.454;2023-03-01T03:30:10;5.78;;;3.92;;
78732;SDS011;68056;52.530;5.454;2023-03-01T03:32:38;6.60;;;3.58;;
78732;SDS011;68056;52.530;5.454;2023-03-01T03:35:05;8.38;;;4.68;;
78732;SDS011;68056;52.530;5.454;2023-03-01T03:37:37;8.38;;;5.13;;
78732;SDS011;68056;52.530;5.454;2023-03-01T03:40:22;7.40;;;4.70;;
78732;SDS011;68056;52.530;5.454;2023-03-01T03:42:48;6.45;;;4.30;;
78732;SDS011;68056;52.530;5.454;2023-03-01T03:45:14;7.35;;;5.07;;
78732;SDS011;68056;52.530;5.454;2023-03-01T03:47:41;9.63;;;4.53;;
78732;SDS011;68056;52.530;5.454;2023-03-01T03:50:07;5.22;;;4.03;;
78732;SDS011;68056;52.530;5.454;2023-03-01T03:52:34;8.02;;;5.13;;
78732;SDS011;68056;52.530;5.454;2023-03-01T03:55:00;3.58;;;2.88;;
78732;SDS011;68056;52.530;5.454;2023-03-01T03:57:25;7.88;;;5.03;;
78732;SDS011;68056;52.530;5.454;2023-03-01T03:59:51;5.20;;;4.03;;
78732;SDS011;68056;52.530;5.454;2023-03-01T04:02:16;10.88;;;5.53;;
78732;SDS011;68056;52.530;5.454;2023-03-01T04:04:47;10.98;;;5.22;;
78732;SDS011;68056;52.530;5.454;2023-03-01T04:07:14;6.82;;;4.63;;
78732;SDS011;68056;52.530;5.454;2023-03-01T04:09:41;6.50;;;4.65;;
78732;SDS011;68056;52.530;5.454;2023-03-01T04:12:07;7.97;;;4.68;;
78732;SDS011;68056;52.530;5.454;2023-03-01T04:14:33;9.27;;;5.63;;
78732;SDS011;68056;52.530;5.454;2023-03-01T04:16:59;7.90;;;4.85;;
78732;SDS011;68056;52.530;5.454;2023-03-01T04:19:24;6.15;;;4.47;;
78732;SDS011;68056;52.530;5.454;2023-03-01T04:21:51;5.97;;;4.70;;
78732;SDS011;68056;52.530;5.454;2023-03-01T04:24:17;9.73;;;5.45;;
78732;SDS011;68056;52.530;5.454;2023-03-01T04:26:43;7.65;;;5.00;;
78732;SDS011;68056;52.530;5.454;2023-03-01T04:29:09;9.10;;;4.88;;
78732;SDS011;68056;52.530;5.454;2023-03-01T04:31:35;6.78;;;4.57;;
78732;SDS011;68056;52.530;5.454;2023-03-01T04:34:01;11.73;;;5.82;;
78732;SDS011;68056;52.530;5.454;2023-03-01T04:36:27;8.32;;;4.78;;
78732;SDS011;68056;52.530;5.454;2023-03-01T04:38:54;9.75;;;4.97;;
78732;SDS011;68056;52.530;5.454;2023-03-01T04:41:21;9.27;;;4.90;;
78732;SDS011;68056;52.530;5.454;2023-03-01T04:43:49;8.35;;;5.03;;
78732;SDS011;68056;52.530;5.454;2023-03-01T04:46:16;9.65;;;5.07;;
78732;SDS011;68056;52.530;5.454;2023-03-01T04:48:43;7.20;;;4.75;;
78732;SDS011;68056;52.530;5.454;2023-03-01T04:51:10;7.68;;;4.82;;
78732;SDS011;68056;52.530;5.454;2023-03-01T04:53:38;10.38;;;5.55;;
78732;SDS011;68056;52.530;5.454;2023-03-01T04:56:04;6.85;;;4.78;;
78732;SDS011;68056;52.530;5.454;2023-03-01T04:58:30;5.88;;;3.88;;
78732;SDS011;68056;52.530;5.454;2023-03-01T05:00:56;6.20;;;4.18;;
78732;SDS011;68056;52.530;5.454;2023-03-01T05:03:21;5.57;;;4.38;;
78732;SDS011;68056;52.530;5.454;2023-03-01T05:05:48;6.72;;;4.45;;
78732;SDS011;68056;52.530;5.454;2023-03-01T05:08:15;7.55;;;5.15;;
78732;SDS011;68056;52.530;5.454;2023-03-01T05:10:50;8.10;;;4.95;;
78732;SDS011;68056;52.530;5.454;2023-03-01T05:13:17;9.82;;;5.60;;
78732;SDS011;68056;52.530;5.454;2023-03-01T05:15:48;7.95;;;5.00;;
78732;SDS011;68056;52.530;5.454;2023-03-01T05:20:50;8.13;;;4.68;;
78732;SDS011;68056;52.530;5.454;2023-03-01T05:23:23;10.38;;;5.43;;
78732;SDS011;68056;52.530;5.454;2023-03-01T05:25:49;7.63;;;4.95;;
78732;SDS011;68056;52.530;5.454;2023-03-01T05:28:17;9.02;;;5.70;;
78732;SDS011;68056;52.530;5.454;2023-03-01T05:30:44;10.48;;;5.18;;
78732;SDS011;68056;52.530;5.454;2023-03-01T05:33:10;8.60;;;4.95;;
78732;SDS011;68056;52.530;5.454;2023-03-01T05:35:40;8.32;;;4.90;;
78732;SDS011;68056;52.530;5.454;2023-03-01T05:38:07;10.93;;;5.75;;
78732;SDS011;68056;52.530;5.454;2023-03-01T05:40:33;8.30;;;5.40;;
78732;SDS011;68056;52.530;5.454;2023-03-01T05:43:00;17.70;;;8.35;;
78732;SDS011;68056;52.530;5.454;2023-03-01T05:45:26;9.73;;;5.22;;
78732;SDS011;68056;52.530;5.454;2023-03-01T05:47:52;10.63;;;5.88;;
78732;SDS011;68056;52.530;5.454;2023-03-01T05:50:24;10.23;;;5.60;;
78732;SDS011;68056;52.530;5.454;2023-03-01T05:55:24;9.13;;;5.32;;
78732;SDS011;68056;52.530;5.454;2023-03-01T05:57:49;10.27;;;5.65;;
78732;SDS011;68056;52.530;5.454;2023-03-01T06:00:16;13.20;;;7.25;;
78732;SDS011;68056;52.530;5.454;2023-03-01T06:02:43;10.57;;;6.57;;
78732;SDS011;68056;52.530;5.454;2023-03-01T06:05:09;9.43;;;5.53;;
78732;SDS011;68056;52.530;5.454;2023-03-01T06:07:38;13.05;;;6.45;;
78732;SDS011;68056;52.530;5.454;2023-03-01T06:10:04;8.85;;;5.78;;
78732;SDS011;68056;52.530;5.454;2023-03-01T06:12:33;10.27;;;5.15;;
78732;SDS011;68056;52.530;5.454;2023-03-01T06:15:03;8.30;;;5.85;;
78732;SDS011;68056;52.530;5.454;2023-03-01T06:17:31;8.18;;;4.82;;
78732;SDS011;68056;52.530;5.454;2023-03-01T06:20:02;8.88;;;6.15;;
78732;SDS011;68056;52.530;5.454;2023-03-01T06:22:35;14.55;;;5.88;;
78732;SDS011;68056;52.530;5.454;2023-03-01T06:25:00;19.38;;;8.00;;
78732;SDS011;68056;52.530;5.454;2023-03-01T06:27:26;19.48;;;8.98;;
78732;SDS011;68056;52.530;5.454;2023-03-01T06:29:52;17.77;;;8.25;;
78732;SDS011;68056;52.530;5.454;2023-03-01T06:32:18;18.27;;;7.30;;
78732;SDS011;68056;52.530;5.454;2023-03-01T06:34:43;18.58;;;8.50;;
78732;SDS011;68056;52.530;5.454;2023-03-01T06:37:09;23.27;;;9.05;;
78732;SDS011;68056;52.530;5.454;2023-03-01T06:39:35;19.65;;;9.55;;
78732;SDS011;68056;52.530;5.454;2023-03-01T06:42:01;15.15;;;5.68;;
78732;SDS011;68056;52.530;5.454;2023-03-01T06:44:26;12.45;;;5.80;;
78732;SDS011;68056;52.530;5.454;2023-03-01T06:46:52;11.27;;;6.15;;
78732;SDS011;68056;52.530;5.454;2023-03-01T06:49:18;14.45;;;6.40;;
78732;SDS011;68056;52.530;5.454;2023-03-01T06:51:44;8.73;;;5.72;;
78732;SDS011;68056;52.530;5.454;2023-03-01T06:54:11;12.90;;;6.40;;
78732;SDS011;68056;52.530;5.454;2023-03-01T06:56:37;11.27;;;5.78;;
78732;SDS011;68056;52.530;5.454;2023-03-01T06:59:03;7.53;;;5.18;;
78732;SDS011;68056;52.530;5.454;2023-03-01T07:01:29;11.13;;;5.35;;
78732;SDS011;68056;52.530;5.454;2023-03-01T07:03:55;9.30;;;5.90;;
78732;SDS011;68056;52.530;5.454;2023-03-01T07:06:21;9.80;;;5.53;;
78732;SDS011;68056;52.530;5.454;2023-03-01T07:08:48;9.77;;;5.70;;
78732;SDS011;68056;52.530;5.454;2023-03-01T07:11:14;11.40;;;5.90;;
78732;SDS011;68056;52.530;5.454;2023-03-01T07:13:42;7.95;;;5.43;;
78732;SDS011;68056;52.530;5.454;2023-03-01T07:16:07;12.18;;;6.72;;
78732;SDS011;68056;52.530;5.454;2023-03-01T07:18:33;10.10;;;6.35;;
78732;SDS011;68056;52.530;5.454;2023-03-01T07:21:03;8.88;;;5.40;;
78732;SDS011;68056;52.530;5.454;2023-03-01T07:23:31;13.95;;;6.65;;
78732;SDS011;68056;52.530;5.454;2023-03-01T07:25:56;8.27;;;5.40;;
78732;SDS011;68056;52.530;5.454;2023-03-01T07:28:22;5.63;;;4.03;;
78732;SDS011;68056;52.530;5.454;2023-03-01T07:30:48;7.20;;;4.60;;
78732;SDS011;68056;52.530;5.454;2023-03-01T07:33:14;9.45;;;5.30;;
78732;SDS011;68056;52.530;5.454;2023-03-01T07:35:40;6.93;;;5.15;;
78732;SDS011;68056;52.530;5.454;2023-03-01T07:38:06;11.07;;;5.95;;
78732;SDS011;68056;52.530;5.454;2023-03-01T07:40:31;9.07;;;5.53;;
78732;SDS011;68056;52.530;5.454;2023-03-01T07:42:57;8.70;;;5.18;;
78732;SDS011;68056;52.530;5.454;2023-03-01T07:45:23;8.50;;;5.65;;
78732;SDS011;68056;52.530;5.454;2023-03-01T07:47:50;9.30;;;5.93;;
78732;SDS011;68056;52.530;5.454;2023-03-01T07:50:17;8.10;;;6.40;;
78732;SDS011;68056;52.530;5.454;2023-03-01T07:52:47;10.57;;;6.28;;
78732;SDS011;68056;52.530;5.454;2023-03-01T07:55:14;8.20;;;5.80;;
78732;SDS011;68056;52.530;5.454;2023-03-01T07:57:40;9.90;;;6.30;;
78732;SDS011;68056;52.530;5.454;2023-03-01T08:00:07;9.73;;;5.82;;
78732;SDS011;68056;52.530;5.454;2023-03-01T08:02:36;8.27;;;5.40;;
78732;SDS011;68056;52.530;5.454;2023-03-01T08:05:01;5.78;;;4.97;;
78732;SDS011;68056;52.530;5.454;2023-03-01T08:07:27;9.50;;;6.40;;
78732;SDS011;68056;52.530;5.454;2023-03-01T08:09:53;8.32;;;6.05;;
78732;SDS011;68056;52.530;5.454;2023-03-01T08:12:18;10.13;;;6.90;;
78732;SDS011;68056;52.530;5.454;2023-03-01T08:14:44;10.45;;;6.47;;
78732;SDS011;68056;52.530;5.454;2023-03-01T08:17:09;7.90;;;5.57;;
78732;SDS011;68056;52.530;5.454;2023-03-01T08:19:35;8.73;;;5.70;;
78732;SDS011;68056;52.530;5.454;2023-03-01T08:22:01;11.50;;;7.60;;
78732;SDS011;68056;52.530;5.454;2023-03-01T08:24:27;8.07;;;6.57;;
78732;SDS011;68056;52.530;5.454;2023-03-01T08:26:53;9.60;;;6.75;;
78732;SDS011;68056;52.530;5.454;2023-03-01T08:29:19;11.48;;;7.07;;
78732;SDS011;68056;52.530;5.454;2023-03-01T08:31:46;7.40;;;5.95;;
78732;SDS011;68056;52.530;5.454;2023-03-01T08:34:13;7.68;;;6.00;;
78732;SDS011;68056;52.530;5.454;2023-03-01T08:36:42;9.07;;;6.45;;
78732;SDS011;68056;52.530;5.454;2023-03-01T08:39:09;8.57;;;6.57;;
78732;SDS011;68056;52.530;5.454;2023-03-01T08:41:36;7.90;;;5.75;;
78732;SDS011;68056;52.530;5.454;2023-03-01T08:44:03;8.88;;;6.45;;
78732;SDS011;68056;52.530;5.454;2023-03-01T08:46:30;7.93;;;6.13;;
78732;SDS011;68056;52.530;5.454;2023-03-01T08:48:57;10.13;;;6.82;;
78732;SDS011;68056;52.530;5.454;2023-03-01T08:51:23;8.18;;;5.90;;
78732;SDS011;68056;52.530;5.454;2023-03-01T08:53:49;8.55;;;6.35;;
78732;SDS011;68056;52.530;5.454;2023-03-01T08:56:15;7.93;;;6.22;;
78732;SDS011;68056;52.530;5.454;2023-03-01T08:58:43;8.93;;;6.13;;
78732;SDS011;68056;52.530;5.454;2023-03-01T09:01:10;8.82;;;6.07;;
78732;SDS011;68056;52.530;5.454;2023-03-01T09:03:37;9.57;;;6.18;;
78732;SDS011;68056;52.530;5.454;2023-03-01T09:06:03;10.05;;;6.45;;
78732;SDS011;68056;52.530;5.454;2023-03-01T09:08:30;7.80;;;6.13;;
78732;SDS011;68056;52.530;5.454;2023-03-01T09:10:56;10.15;;;7.30;;
78732;SDS011;68056;52.530;5.454;2023-03-01T09:13:21;9.77;;;6.47;;
78732;SDS011;68056;52.530;5.454;2023-03-01T09:15:50;12.43;;;7.38;;
78732;SDS011;68056;52.530;5.454;2023-03-01T09:18:16;12.02;;;8.35;;
78732;SDS011;68056;52.530;5.454;2023-03-01T09:20:42;12.15;;;8.07;;
78732;SDS011;68056;52.530;5.454;2023-03-01T09:23:07;11.70;;;7.72;;
78732;SDS011;68056;52.530;5.454;2023-03-01T09:25:34;10.90;;;8.13;;
78732;SDS011;68056;52.530;5.454;2023-03-01T09:28:00;12.30;;;7.68;;
78732;SDS011;68056;52.530;5.454;2023-03-01T09:30:25;12.63;;;8.35;;
78732;SDS011;68056;52.530;5.454;2023-03-01T09:32:51;12.05;;;8.40;;
78732;SDS011;68056;52.530;5.454;2023-03-01T09:35:17;13.80;;;8.80;;
78732;SDS011;68056;52.530;5.454;2023-03-01T09:40:17;11.95;;;7.07;;
78732;SDS011;68056;52.530;5.454;2023-03-01T09:43:06;13.13;;;7.65;;
78732;SDS011;68056;52.530;5.454;2023-03-01T09:45:50;13.10;;;8.65;;
78732;SDS011;68056;52.530;5.454;2023-03-01T09:48:20;13.35;;;8.38;;
78732;SDS011;68056;52.530;5.454;2023-03-01T09:50:49;13.38;;;8.13;;
78732;SDS011;68056;52.530;5.454;2023-03-01T09:53:16;12.50;;;8.18;;
78732;SDS011;68056;52.530;5.454;2023-03-01T09:58:51;12.82;;;8.75;;
78732;SDS011;68056;52.530;5.454;2023-03-01T10:01:30;14.65;;;9.45;;
78732;SDS011;68056;52.530;5.454;2023-03-01T10:04:05;15.38;;;10.45;;
78732;SDS011;68056;52.530;5.454;2023-03-01T10:09:37;14.05;;;9.95;;
78732;SDS011;68056;52.530;5.454;2023-03-01T10:12:09;14.57;;;10.30;;
78732;SDS011;68056;52.530;5.454;2023-03-01T10:14:46;15.82;;;10.48;;
78732;SDS011;68056;52.530;5.454;2023-03-01T10:17:39;17.10;;;11.00;;
78732;SDS011;68056;52.530;5.454;2023-03-01T10:20:23;16.67;;;10.05;;
78732;SDS011;68056;52.530;5.454;2023-03-01T10:22:58;16.05;;;10.20;;
78732;SDS011;68056;52.530;5.454;2023-03-01T10:25:31;17.05;;;11.48;;
78732;SDS011;68056;52.530;5.454;2023-03-01T10:28:25;19.02;;;11.88;;
78732;SDS011;68056;52.530;5.454;2023-03-01T10:31:21;18.67;;;11.93;;
78732;SDS011;68056;52.530;5.454;2023-03-01T10:33:52;18.58;;;11.73;;
78732;SDS011;68056;52.530;5.454;2023-03-01T10:36:20;16.90;;;11.02;;
78732;SDS011;68056;52.530;5.454;2023-03-01T10:38:51;16.52;;;10.25;;
78732;SDS011;68056;52.530;5.454;2023-03-01T10:41:19;15.93;;;10.00;;
78732;SDS011;68056;52.530;5.454;2023-03-01T10:51:45;11.13;;;7.47;;
78732;SDS011;68056;52.530;5.454;2023-03-01T10:54:20;10.18;;;6.50;;
78732;SDS011;68056;52.530;5.454;2023-03-01T10:56:57;11.68;;;7.43;;
78732;SDS011;68056;52.530;5.454;2023-03-01T10:59:32;12.27;;;7.43;;
78732;SDS011;68056;52.530;5.454;2023-03-01T11:02:16;10.75;;;7.03;;
78732;SDS011;68056;52.530;5.454;2023-03-01T11:07:21;10.75;;;7.28;;
78732;SDS011;68056;52.530;5.454;2023-03-01T11:09:47;13.10;;;8.13;;
78732;SDS011;68056;52.530;5.454;2023-03-01T11:12:13;11.45;;;7.65;;
78732;SDS011;68056;52.530;5.454;2023-03-01T11:14:46;12.23;;;7.10;;
78732;SDS011;68056;52.530;5.454;2023-03-01T11:20:05;10.63;;;7.80;;
78732;SDS011;68056;52.530;5.454;2023-03-01T11:22:37;12.93;;;8.10;;
78732;SDS011;68056;52.530;5.454;2023-03-01T11:25:13;12.30;;;7.50;;
78732;SDS011;68056;52.530;5.454;2023-03-01T11:27:40;8.35;;;5.60;;
78732;SDS011;68056;52.530;5.454;2023-03-01T11:30:28;8.52;;;5.75;;
78732;SDS011;68056;52.530;5.454;2023-03-01T11:38:56;6.97;;;4.68;;
78732;SDS011;68056;52.530;5.454;2023-03-01T11:41:28;6.35;;;4.88;;
78732;SDS011;68056;52.530;5.454;2023-03-01T11:44:03;9.88;;;5.50;;
78732;SDS011;68056;52.530;5.454;2023-03-01T11:46:40;8.65;;;5.63;;
78732;SDS011;68056;52.530;5.454;2023-03-01T11:57:58;8.73;;;4.45;;
78732;SDS011;68056;52.530;5.454;2023-03-01T12:00:48;11.32;;;4.85;;
78732;SDS011;68056;52.530;5.454;2023-03-01T12:06:34;7.30;;;4.82;;
78732;SDS011;68056;52.530;5.454;2023-03-01T12:25:41;10.45;;;6.72;;
78732;SDS011;68056;52.530;5.454;2023-03-01T12:31:59;12.13;;;7.05;;
78732;SDS011;68056;52.530;5.454;2023-03-01T12:34:27;9.27;;;5.93;;
78732;SDS011;68056;52.530;5.454;2023-03-01T12:51:20;8.20;;;5.25;;
78732;SDS011;68056;52.530;5.454;2023-03-01T12:53:50;8.02;;;4.80;;
78732;SDS011;68056;52.530;5.454;2023-03-01T12:56:22;7.68;;;4.65;;
78732;SDS011;68056;52.530;5.454;2023-03-01T12:59:06;7.65;;;5.03;;
78732;SDS011;68056;52.530;5.454;2023-03-01T13:04:53;7.00;;;4.65;;
78732;SDS011;68056;52.530;5.454;2023-03-01T13:07:41;6.78;;;4.80;;
78732;SDS011;68056;52.530;5.454;2023-03-01T13:12:51;5.68;;;4.47;;
78732;SDS011;68056;52.530;5.454;2023-03-01T13:15:26;6.18;;;4.13;;
78732;SDS011;68056;52.530;5.454;2023-03-01T13:18:00;6.07;;;4.47;;
78732;SDS011;68056;52.530;5.454;2023-03-01T13:20:30;6.03;;;4.55;;
78732;SDS011;68056;52.530;5.454;2023-03-01T13:23:08;5.45;;;3.90;;
78732;SDS011;68056;52.530;5.454;2023-03-01T13:25:35;6.00;;;4.00;;
78732;SDS011;68056;52.530;5.454;2023-03-01T13:31:01;5.90;;;4.35;;
78732;SDS011;68056;52.530;5.454;2023-03-01T13:35:54;6.18;;;4.18;;
78732;SDS011;68056;52.530;5.454;2023-03-01T13:41:08;6.00;;;3.70;;
78732;SDS011;68056;52.530;5.454;2023-03-01T13:43:35;7.63;;;4.28;;
78732;SDS011;68056;52.530;5.454;2023-03-01T13:46:36;6.40;;;4.35;;
78732;SDS011;68056;52.530;5.454;2023-03-01T13:48:56;6.28;;;4.13;;
78732;SDS011;68056;52.530;5.454;2023-03-01T13:51:23;6.07;;;3.63;;
78732;SDS011;68056;52.530;5.454;2023-03-01T13:53:51;6.25;;;3.85;;
78732;SDS011;68056;52.530;5.454;2023-03-01T13:56:33;5.90;;;3.55;;
78732;SDS011;68056;52.530;5.454;2023-03-01T13:59:18;6.63;;;4.13;;
78732;SDS011;68056;52.530;5.454;2023-03-01T14:01:51;5.47;;;3.50;;
78732;SDS011;68056;52.530;5.454;2023-03-01T14:04:20;6.88;;;4.32;;
78732;SDS011;68056;52.530;5.454;2023-03-01T14:06:47;6.50;;;4.25;;
78732;SDS011;68056;52.530;5.454;2023-03-01T14:14:41;5.70;;;4.00;;
78732;SDS011;68056;52.530;5.454;2023-03-01T14:20:23;6.65;;;3.88;;
78732;SDS011;68056;52.530;5.454;2023-03-01T14:22:52;6.75;;;4.10;;
78732;SDS011;68056;52.530;5.454;2023-03-01T14:27:58;4.70;;;3.50;;
78732;SDS011;68056;52.530;5.454;2023-03-01T14:30:37;6.07;;;3.58;;
78732;SDS011;68056;52.530;5.454;2023-03-01T14:38:28;4.82;;;3.97;;
78732;SDS011;68056;52.530;5.454;2023-03-01T14:41:00;6.68;;;3.58;;
78732;SDS011;68056;52.530;5.454;2023-03-01T14:43:40;4.90;;;3.60;;
78732;SDS011;68056;52.530;5.454;2023-03-01T14:46:23;5.15;;;3.72;;
78732;SDS011;68056;52.530;5.454;2023-03-01T14:49:09;5.70;;;4.13;;
78732;SDS011;68056;52.530;5.454;2023-03-01T14:52:21;6.15;;;2.92;;
78732;SDS011;68056;52.530;5.454;2023-03-01T14:54:47;5.15;;;3.47;;
78732;SDS011;68056;52.530;5.454;2023-03-01T14:57:16;5.57;;;3.25;;
78732;SDS011;68056;52.530;5.454;2023-03-01T14:59:49;4.90;;;3.17;;
78732;SDS011;68056;52.530;5.454;2023-03-01T15:02:18;6.47;;;3.42;;
78732;SDS011;68056;52.530;5.454;2023-03-01T15:04:46;5.47;;;3.30;;
78732;SDS011;68056;52.530;5.454;2023-03-01T15:07:14;4.53;;;3.28;;
78732;SDS011;68056;52.530;5.454;2023-03-01T15:09:40;5.65;;;2.85;;
78732;SDS011;68056;52.530;5.454;2023-03-01T15:14:54;4.72;;;3.13;;
78732;SDS011;68056;52.530;5.454;2023-03-01T15:20:04;4.38;;;2.80;;
78732;SDS011;68056;52.530;5.454;2023-03-01T15:22:32;5.47;;;3.40;;
78732;SDS011;68056;52.530;5.454;2023-03-01T15:24:58;4.93;;;3.53;;
78732;SDS011;68056;52.530;5.454;2023-03-01T15:27:25;5.28;;;3.72;;
78732;SDS011;68056;52.530;5.454;2023-03-01T15:34:49;4.72;;;3.38;;
78732;SDS011;68056;52.530;5.454;2023-03-01T15:40:17;6.20;;;3.63;;
78732;SDS011;68056;52.530;5.454;2023-03-01T15:42:44;4.82;;;3.45;;
78732;SDS011;68056;52.530;5.454;2023-03-01T15:47:40;5.22;;;3.97;;
78732;SDS011;68056;52.530;5.454;2023-03-01T15:50:41;5.32;;;3.28;;
78732;SDS011;68056;52.530;5.454;2023-03-01T15:53:01;7.13;;;3.47;;
78732;SDS011;68056;52.530;5.454;2023-03-01T15:55:33;5.50;;;4.00;;
78732;SDS011;68056;52.530;5.454;2023-03-01T16:00:45;5.10;;;3.15;;
78732;SDS011;68056;52.530;5.454;2023-03-01T16:03:13;5.15;;;2.85;;
78732;SDS011;68056;52.530;5.454;2023-03-01T16:05:46;6.88;;;3.70;;
78732;SDS011;68056;52.530;5.454;2023-03-01T16:08:12;5.78;;;3.70;;
78732;SDS011;68056;52.530;5.454;2023-03-01T16:10:38;5.63;;;3.97;;
78732;SDS011;68056;52.530;5.454;2023-03-01T16:13:05;5.07;;;3.42;;
78732;SDS011;68056;52.530;5.454;2023-03-01T16:15:31;5.45;;;3.33;;
78732;SDS011;68056;52.530;5.454;2023-03-01T16:18:01;6.75;;;3.80;;
78732;SDS011;68056;52.530;5.454;2023-03-01T16:20:27;5.90;;;4.13;;
78732;SDS011;68056;52.530;5.454;2023-03-01T16:22:55;6.07;;;3.08;;
78732;SDS011;68056;52.530;5.454;2023-03-01T16:25:25;6.07;;;3.85;;
78732;SDS011;68056;52.530;5.454;2023-03-01T16:27:50;5.10;;;3.75;;
78732;SDS011;68056;52.530;5.454;2023-03-01T16:30:20;4.72;;;3.10;;
78732;SDS011;68056;52.530;5.454;2023-03-01T16:32:48;5.65;;;3.58;;
78732;SDS011;68056;52.530;5.454;2023-03-01T16:35:15;5.30;;;3.78;;
78732;SDS011;68056;52.530;5.454;2023-03-01T16:37:45;4.80;;;3.42;;
78732;SDS011;68056;52.530;5.454;2023-03-01T16:40:19;5.22;;;3.22;;
78732;SDS011;68056;52.530;5.454;2023-03-01T16:42:46;5.75;;;2.80;;
78732;SDS011;68056;52.530;5.454;2023-03-01T16:45:12;5.43;;;2.88;;
78732;SDS011;68056;52.530;5.454;2023-03-01T16:47:37;4.72;;;3.03;;
78732;SDS011;68056;52.530;5.454;2023-03-01T16:50:03;4.47;;;2.90;;
78732;SDS011;68056;52.530;5.454;2023-03-01T16:52:29;6.85;;;3.83;;
78732;SDS011;68056;52.530;5.454;2023-03-01T16:54:55;3.80;;;2.78;;
78732;SDS011;68056;52.530;5.454;2023-03-01T16:57:20;4.30;;;2.80;;
78732;SDS011;68056;52.530;5.454;2023-03-01T16:59:46;5.13;;;3.33;;
78732;SDS011;68056;52.530;5.454;2023-03-01T17:02:12;4.75;;;3.65;;
78732;SDS011;68056;52.530;5.454;2023-03-01T17:04:39;6.03;;;3.28;;
78732;SDS011;68056;52.530;5.454;2023-03-01T17:07:05;5.68;;;3.40;;
78732;SDS011;68056;52.530;5.454;2023-03-01T17:09:35;4.90;;;2.97;;